createdAt,value
2019-04-03T17:56:51.688Z,6.37
2019-04-03T18:00:55.500Z,6.05
2019-04-03T18:04:59.198Z,5.60
2019-04-03T18:09:04.752Z,5.80
2019-04-03T18:13:09.663Z,5.65
2019-04-03T18:17:13.374Z,5.65
2019-04-03T18:21:17.649Z,5.60
2019-04-03T18:25:21.436Z,5.05
2019-04-03T18:29:25.159Z,5.12
2019-04-03T18:33:28.946Z,5.87
2019-04-03T18:37:34.447Z,5.20
2019-04-03T18:41:38.360Z,5.20
2019-04-03T18:45:42.533Z,5.12
2019-04-03T18:49:46.393Z,4.72
2019-04-03T18:53:50.545Z,4.87
2019-04-03T18:57:54.982Z,4.55
2019-04-03T19:01:58.824Z,5.03
2019-04-03T19:06:02.708Z,4.92
2019-04-03T19:10:07.855Z,4.47
2019-04-03T19:14:11.849Z,4.47
2019-04-03T19:18:19.777Z,4.60
2019-04-03T19:22:21.545Z,4.62
2019-04-03T19:26:28.392Z,4.50
2019-04-03T19:30:32.102Z,4.30
2019-04-03T19:34:35.785Z,4.55
2019-04-03T19:38:39.482Z,4.47
2019-04-03T19:42:43.899Z,4.62
2019-04-03T19:46:48.185Z,3.90
2019-04-03T19:50:53.245Z,4.40
2019-04-03T19:54:56.929Z,4.50
2019-04-03T19:59:00.681Z,3.98
2019-04-03T20:03:04.363Z,4.47
2019-04-03T20:07:08.091Z,4.25
2019-04-03T20:11:11.878Z,4.10
2019-04-03T20:15:15.569Z,3.70
2019-04-03T20:19:19.544Z,3.70
2019-04-03T20:23:23.182Z,4.00
2019-04-03T20:27:27.642Z,3.72
2019-04-03T20:31:31.405Z,3.75
2019-04-03T20:35:35.096Z,3.70
2019-04-03T20:39:38.782Z,4.20
2019-04-03T20:43:43.323Z,3.90
2019-04-03T20:47:48.022Z,3.90
2019-04-03T20:51:51.687Z,3.65
2019-04-03T20:55:57.711Z,3.45
2019-04-03T21:00:03.164Z,3.60
2019-04-03T21:04:08.634Z,3.62
2019-04-03T21:08:12.358Z,3.62
2019-04-03T21:12:16.116Z,3.40
2019-04-03T21:16:19.809Z,3.52
2019-04-03T21:20:23.797Z,3.58
2019-04-03T21:24:28.941Z,3.47
2019-04-03T21:28:32.596Z,3.70
2019-04-03T21:32:36.238Z,3.60
2019-04-03T21:36:39.916Z,3.72
2019-04-03T21:40:45.019Z,3.87
2019-04-03T21:44:49.183Z,3.20
2019-04-03T21:48:53.841Z,3.58
2019-04-03T21:52:57.498Z,3.35
2019-04-03T21:57:01.162Z,3.40
2019-04-03T22:01:23.983Z,3.20
2019-04-03T22:05:27.657Z,3.40
2019-04-03T22:09:31.474Z,3.42
2019-04-03T22:13:38.182Z,3.30
2019-04-03T22:17:43.588Z,3.42
2019-04-03T22:21:46.963Z,3.37
2019-04-03T22:25:50.600Z,3.30
2019-04-03T22:29:54.249Z,3.15
2019-04-03T22:33:58.892Z,3.37
2019-04-03T22:38:05.301Z,3.52
2019-04-03T22:42:08.705Z,3.15
2019-04-03T22:46:12.369Z,3.50
2019-04-03T22:50:16.170Z,3.17
2019-04-03T22:54:19.800Z,3.42
2019-04-03T22:58:23.569Z,3.45
2019-04-03T23:02:27.331Z,3.10
2019-04-03T23:06:30.999Z,3.30
2019-04-03T23:10:35.160Z,3.47
2019-04-03T23:14:39.265Z,3.45
2019-04-03T23:18:42.914Z,3.27
2019-04-03T23:22:46.923Z,3.27
2019-04-03T23:26:50.571Z,3.10
2019-04-03T23:30:54.226Z,3.20
2019-04-03T23:34:57.879Z,3.30
2019-04-03T23:39:03.599Z,3.30
2019-04-03T23:43:09.466Z,3.20
2019-04-03T23:47:15.082Z,3.02
2019-04-03T23:51:23.375Z,3.00
2019-04-03T23:55:25.092Z,3.45
2019-04-03T23:59:28.799Z,3.20
